createdAt,value
2022-09-28T00:02:51.501Z,12.10
2022-09-28T00:07:59.450Z,12.00
2022-09-28T00:13:05.907Z,10.80
2022-09-28T00:18:13.459Z,7.90
2022-09-28T00:23:20.819Z,8.50
2022-09-28T00:28:26.274Z,7.00
2022-09-28T00:33:31.626Z,10.70
2022-09-28T00:38:37.044Z,10.00
2022-09-28T00:43:42.571Z,6.70
2022-09-28T00:48:52.033Z,8.80
2022-09-28T00:53:58.226Z,7.50
2022-09-28T00:59:05.155Z,8.40
2022-09-28T01:04:10.956Z,9.50
2022-09-28T01:09:20.467Z,9.80
2022-09-28T01:14:28.604Z,10.70
2022-09-28T01:19:49.086Z,15.50
2022-09-28T01:24:57.550Z,7.30
2022-09-28T01:30:05.910Z,8.90
2022-09-28T01:35:15.342Z,6.50
2022-09-28T01:40:22.133Z,9.60
2022-09-28T01:45:30.374Z,10.30
2022-09-28T01:50:38.888Z,10.30
2022-09-28T01:55:46.277Z,8.50
2022-09-28T02:00:55.150Z,8.80
2022-09-28T02:06:05.706Z,7.10
2022-09-28T02:11:14.007Z,10.00
2022-09-28T02:16:23.276Z,8.20
2022-09-28T02:21:31.017Z,8.90
2022-09-28T02:26:38.109Z,7.70
2022-09-28T02:31:44.060Z,8.70
2022-09-28T02:36:50.789Z,10.30
2022-09-28T02:42:03.822Z,12.20
2022-09-28T02:47:17.152Z,12.10
2022-09-28T02:52:34.822Z,8.40
2022-09-28T02:57:45.837Z,11.30
2022-09-28T03:03:00.434Z,10.00
2022-09-28T03:08:11.650Z,9.50
2022-09-28T03:13:17.794Z,9.70
2022-09-28T03:18:23.109Z,9.10
2022-09-28T03:23:28.632Z,12.60
2022-09-28T03:28:34.703Z,6.10
2022-09-28T03:33:40.045Z,12.40
2022-09-28T03:38:45.544Z,12.20
2022-09-28T03:43:50.922Z,27.90
2022-09-28T03:48:57.561Z,12.80
2022-09-28T03:54:03.186Z,9.70
2022-09-28T03:59:08.923Z,11.60
2022-09-28T04:04:15.072Z,14.90
2022-09-28T04:09:20.586Z,16.80
2022-09-28T04:14:26.275Z,14.50
2022-09-28T04:19:31.759Z,12.10
2022-09-28T04:24:56.339Z,10.40
2022-09-28T04:30:01.612Z,16.10
2022-09-28T04:35:08.885Z,15.40
2022-09-28T04:40:14.241Z,14.80
2022-09-28T04:45:19.862Z,15.30
2022-09-28T04:50:25.753Z,11.10
2022-09-28T04:55:57.488Z,13.70
2022-09-28T05:01:07.725Z,12.20
2022-09-28T05:06:37.509Z,23.10
2022-09-28T05:11:44.970Z,13.60
2022-09-28T05:16:55.245Z,16.40
2022-09-28T05:22:06.619Z,22.20
2022-09-28T05:27:16.587Z,23.30
2022-09-28T05:32:25.614Z,22.60
2022-09-28T05:37:57.263Z,16.50
2022-09-28T05:43:03.497Z,20.80
2022-09-28T05:48:10.333Z,22.40
2022-09-28T05:53:15.782Z,26.80
2022-09-28T05:58:21.898Z,28.80
2022-09-28T06:03:27.487Z,25.40
2022-09-28T06:08:33.409Z,23.40
2022-09-28T06:13:56.506Z,18.50
2022-09-28T06:19:04.905Z,12.00
2022-09-28T06:24:18.729Z,9.40
2022-09-28T06:29:25.241Z,7.30
2022-09-28T06:34:31.337Z,6.70
2022-09-28T06:39:37.765Z,9.80
2022-09-28T06:44:44.010Z,6.90
2022-09-28T06:50:12.240Z,10.80
2022-09-28T06:55:29.473Z,9.00
2022-09-28T07:00:36.983Z,7.50
2022-09-28T07:05:43.976Z,10.30
2022-09-28T07:11:08.819Z,18.30
2022-09-28T07:16:27.322Z,10.70
2022-09-28T07:21:36.148Z,9.00
2022-09-28T07:26:46.247Z,20.70
2022-09-28T07:32:00.481Z,63.70
2022-09-28T07:37:20.964Z,9.70
2022-09-28T07:42:30.181Z,8.10
2022-09-28T07:47:35.990Z,11.60
2022-09-28T07:53:00.567Z,6.60
2022-09-28T07:58:14.242Z,5.60
2022-09-28T08:03:48.678Z,8.10
2022-09-28T08:08:56.512Z,8.40
2022-09-28T08:14:12.411Z,7.40
2022-09-28T08:20:01.902Z,4.50
2022-09-28T08:25:09.659Z,5.60
2022-09-28T08:30:15.995Z,6.80
2022-09-28T08:35:41.014Z,11.30
2022-09-28T08:41:05.111Z,4.70
2022-09-28T08:46:29.561Z,2.20
2022-09-28T08:52:00.214Z,5.30
2022-09-28T08:57:35.141Z,7.50
2022-09-28T09:02:42.376Z,4.50
2022-09-28T09:08:05.363Z,3.50
2022-09-28T09:13:20.627Z,6.50
2022-09-28T09:18:33.844Z,5.60
2022-09-28T09:23:56.668Z,4.50
2022-09-28T09:29:19.754Z,4.90
2022-09-28T09:34:35.664Z,2.40
2022-09-28T09:40:26.307Z,3.40
2022-09-28T09:45:50.905Z,2.40
2022-09-28T09:51:15.038Z,3.70
2022-09-28T09:56:21.840Z,2.80
2022-09-28T10:01:46.009Z,3.50
2022-09-28T10:07:17.006Z,3.90
2022-09-28T10:12:23.524Z,2.90
2022-09-28T10:17:29.379Z,2.60
2022-09-28T10:22:53.516Z,2.90
2022-09-28T10:28:02.152Z,2.40
2022-09-28T10:33:30.496Z,3.30
2022-09-28T10:38:50.454Z,3.40
2022-09-28T10:44:08.959Z,1.80
2022-09-28T10:49:45.833Z,1.70
2022-09-28T10:54:55.006Z,2.10
2022-09-28T11:00:01.734Z,1.60
2022-09-28T11:05:22.196Z,3.30
2022-09-28T11:10:30.103Z,5.90
2022-09-28T11:15:42.793Z,5.90
2022-09-28T11:20:49.600Z,1.90
2022-09-28T11:26:01.321Z,1.00
2022-09-28T11:31:09.441Z,2.70
2022-09-28T11:36:32.639Z,3.60
2022-09-28T11:41:43.783Z,3.00
2022-09-28T11:46:54.177Z,3.10
2022-09-28T11:52:02.421Z,2.30
2022-09-28T11:57:13.200Z,4.00
2022-09-28T12:02:25.534Z,15.40
2022-09-28T12:07:37.988Z,12.90
2022-09-28T12:12:49.051Z,11.60
2022-09-28T12:17:57.304Z,13.40
2022-09-28T12:23:06.347Z,5.10
2022-09-28T12:28:17.427Z,9.10
2022-09-28T12:33:23.203Z,5.60
2022-09-28T12:38:42.026Z,3.50
2022-09-28T12:43:56.407Z,2.70
2022-09-28T12:54:53.388Z,1.70
2022-09-28T13:00:04.427Z,4.30
2022-09-28T13:10:22.927Z,5.10
2022-09-28T13:20:40.867Z,4.10
2022-09-28T13:25:52.242Z,2.40
2022-09-28T13:31:02.371Z,2.40
2022-09-28T13:36:31.272Z,6.70
2022-09-28T13:41:37.354Z,3.80
2022-09-28T13:46:50.351Z,2.80
2022-09-28T13:52:04.069Z,4.00
2022-09-28T13:57:19.847Z,7.40
2022-09-28T14:02:32.971Z,6.10
2022-09-28T14:07:57.229Z,9.70
2022-09-28T14:13:06.533Z,7.20
2022-09-28T14:18:29.344Z,9.30
2022-09-28T14:23:59.105Z,5.50
2022-09-28T14:29:10.584Z,3.80
2022-09-28T14:34:26.881Z,2.70
2022-09-28T14:39:51.366Z,9.60
2022-09-28T14:45:13.898Z,4.50
2022-09-28T14:50:24.827Z,4.20
2022-09-28T14:55:32.225Z,17.40
2022-09-28T15:00:39.457Z,24.40
2022-09-28T15:05:47.227Z,9.00
2022-09-28T15:10:52.945Z,7.70
2022-09-28T15:16:00.907Z,8.10
2022-09-28T15:21:06.423Z,9.40
2022-09-28T15:26:21.885Z,12.50
2022-09-28T15:31:28.287Z,10.70
2022-09-28T15:36:36.483Z,8.00
2022-09-28T15:41:43.308Z,19.70
2022-09-28T15:46:49.042Z,12.00
2022-09-28T15:51:57.529Z,11.20
2022-09-28T15:57:04.015Z,10.20
2022-09-28T16:02:16.544Z,12.10
2022-09-28T16:07:24.739Z,23.00
2022-09-28T16:12:32.411Z,17.20
2022-09-28T16:17:38.184Z,18.40
2022-09-28T16:22:46.632Z,25.80
2022-09-28T16:27:53.183Z,21.20
2022-09-28T16:33:01.539Z,29.00
2022-09-28T16:38:13.925Z,20.90
2022-09-28T16:43:26.897Z,15.20
2022-09-28T16:48:36.310Z,15.70
2022-09-28T16:54:02.113Z,14.50
2022-09-28T16:59:13.917Z,14.10
2022-09-28T17:04:20.117Z,27.00
2022-09-28T17:09:25.713Z,23.90
2022-09-28T17:14:32.906Z,21.70
2022-09-28T17:19:38.269Z,68.90
2022-09-28T17:24:45.669Z,26.30
2022-09-28T17:29:51.886Z,20.00
2022-09-28T17:35:19.838Z,13.80
2022-09-28T17:40:24.896Z,13.80
2022-09-28T17:45:31.509Z,15.80
2022-09-28T17:50:37.167Z,16.90
2022-09-28T17:55:43.978Z,15.10
2022-09-28T18:00:50.931Z,15.40
2022-09-28T18:06:03.199Z,15.30
2022-09-28T18:11:08.897Z,22.20
2022-09-28T18:16:15.606Z,24.30
2022-09-28T18:21:21.981Z,24.10
2022-09-28T18:26:27.891Z,18.80
2022-09-28T18:31:33.654Z,17.90
2022-09-28T18:36:45.512Z,8.50
2022-09-28T18:41:53.705Z,7.90
2022-09-28T18:47:02.618Z,8.40
2022-09-28T18:52:08.691Z,12.50
2022-09-28T18:57:15.507Z,23.20
2022-09-28T19:02:22.937Z,24.40
2022-09-28T19:07:28.770Z,13.00
2022-09-28T19:12:34.865Z,10.90
2022-09-28T19:17:40.838Z,12.60
2022-09-28T19:22:46.317Z,8.20
2022-09-28T19:27:54.583Z,11.20
2022-09-28T19:33:04.579Z,8.40
2022-09-28T19:38:11.389Z,9.10
2022-09-28T19:43:16.901Z,9.30
2022-09-28T19:48:26.707Z,7.10
2022-09-28T19:53:33.128Z,10.90
2022-09-28T19:58:38.969Z,6.50
2022-09-28T20:03:47.109Z,7.30
2022-09-28T20:08:52.662Z,9.90
2022-09-28T20:13:59.411Z,9.10
2022-09-28T20:19:07.530Z,14.50
2022-09-28T20:24:13.258Z,10.40
2022-09-28T20:29:21.402Z,14.90
2022-09-28T20:34:26.948Z,16.60
2022-09-28T20:39:32.430Z,44.50
2022-09-28T20:44:38.033Z,24.10
2022-09-28T20:49:55.237Z,69.10
2022-09-28T20:55:00.869Z,58.00
2022-09-28T21:00:07.480Z,77.10
2022-09-28T21:05:13.105Z,104.30
2022-09-28T21:10:18.611Z,56.80
2022-09-28T21:15:24.039Z,40.10
2022-09-28T21:20:29.293Z,31.10
2022-09-28T21:25:36.971Z,32.40
2022-09-28T21:30:43.360Z,27.30
2022-09-28T21:35:48.739Z,22.00
2022-09-28T21:40:58.712Z,21.70
2022-09-28T21:46:05.331Z,16.00
2022-09-28T21:51:12.667Z,12.90
2022-09-28T21:56:18.688Z,14.80
2022-09-28T22:01:26.222Z,15.20
2022-09-28T22:06:32.021Z,13.80
2022-09-28T22:11:39.533Z,13.50
2022-09-28T22:16:44.878Z,14.80
2022-09-28T22:21:50.281Z,10.80
2022-09-28T22:26:55.692Z,13.40
2022-09-28T22:32:02.445Z,13.10
2022-09-28T22:37:07.735Z,12.10
2022-09-28T22:42:13.052Z,16.70
2022-09-28T22:47:18.591Z,13.40
2022-09-28T22:52:24.326Z,11.50
2022-09-28T22:57:30.369Z,16.80
2022-09-28T23:02:35.999Z,12.30
2022-09-28T23:07:41.479Z,12.60
2022-09-28T23:12:46.760Z,9.80
2022-09-28T23:17:53.280Z,13.80
2022-09-28T23:23:01.915Z,10.40
2022-09-28T23:28:07.722Z,15.70
2022-09-28T23:33:14.034Z,12.40
2022-09-28T23:38:19.403Z,10.50
2022-09-28T23:43:24.819Z,12.30
2022-09-28T23:48:30.229Z,10.00
2022-09-28T23:53:35.706Z,9.70
2022-09-28T23:58:41.771Z,11.30
